sensor_id;sensor_type;location;lat;lon;timestamp;pressure;altitude;pressure_sealevel;temperature;humidity
54600;BME280;40500;51.084;16.958;2023-01-25T00:02:28;102430.55;;;2.45;100.00
54600;BME280;40500;51.084;16.958;2023-01-25T00:05:21;102427.67;;;2.43;100.00
54600;BME280;40500;51.084;16.958;2023-01-25T00:08:13;102427.39;;;2.44;100.00
54600;BME280;40500;51.084;16.958;2023-01-25T00:11:10;102424.00;;;2.42;100.00
54600;BME280;40500;51.084;16.958;2023-01-25T00:13:57;102423.05;;;2.41;100.00
54600;BME280;40500;51.084;16.958;2023-01-25T00:16:53;102421.86;;;2.41;100.00
54600;BME280;40500;51.084;16.958;2023-01-25T00:19:28;102422.88;;;2.41;100.00
54600;BME280;40500;51.084;16.958;2023-01-25T00:22:22;102418.39;;;2.37;100.00
54600;BME280;40500;51.084;16.958;2023-01-25T00:24:55;102412.20;;;2.34;100.00
54600;BME280;40500;51.084;16.958;2023-01-25T00:27:27;102414.38;;;2.33;100.00
54600;BME280;40500;51.084;16.958;2023-01-25T00:30:09;102416.48;;;2.33;100.00
54600;BME280;40500;51.084;16.958;2023-01-25T00:32:57;102419.43;;;2.33;100.00
54600;BME280;40500;51.084;16.958;2023-01-25T00:35:45;102420.59;;;2.36;100.00
54600;BME280;40500;51.084;16.958;2023-01-25T00:38:29;102414.44;;;2.37;100.00
54600;BME280;40500;51.084;16.958;2023-01-25T00:41:27;102417.63;;;2.39;100.00
54600;BME280;40500;51.084;16.958;2023-01-25T00:44:02;102410.94;;;2.37;100.00
54600;BME280;40500;51.084;16.958;2023-01-25T00:46:39;102405.34;;;2.35;100.00
54600;BME280;40500;51.084;16.958;2023-01-25T00:49:20;102400.16;;;2.32;100.00
54600;BME280;40500;51.084;16.958;2023-01-25T00:52:12;102397.59;;;2.29;100.00
54600;BME280;40500;51.084;16.958;2023-01-25T00:55:02;102398.74;;;2.31;100.00
54600;BME280;40500;51.084;16.958;2023-01-25T00:58:03;102398.77;;;2.32;100.00
54600;BME280;40500;51.084;16.958;2023-01-25T01:00:38;102398.56;;;2.31;100.00
54600;BME280;40500;51.084;16.958;2023-01-25T01:03:37;102394.27;;;2.32;100.00
54600;BME280;40500;51.084;16.958;2023-01-25T01:06:34;102391.16;;;2.32;100.00
54600;BME280;40500;51.084;16.958;2023-01-25T01:09:10;102388.48;;;2.30;100.00
54600;BME280;40500;51.084;16.958;2023-01-25T01:11:44;102390.05;;;2.30;100.00
54600;BME280;40500;51.084;16.958;2023-01-25T01:14:39;102374.89;;;2.31;100.00
54600;BME280;40500;51.084;16.958;2023-01-25T01:17:10;102367.56;;;2.30;100.00
54600;BME280;40500;51.084;16.958;2023-01-25T01:19:48;102365.89;;;2.31;100.00
54600;BME280;40500;51.084;16.958;2023-01-25T01:22:42;102357.64;;;2.32;100.00
54600;BME280;40500;51.084;16.958;2023-01-25T01:25:16;102354.60;;;2.33;100.00
54600;BME280;40500;51.084;16.958;2023-01-25T01:28:13;102351.14;;;2.33;100.00
54600;BME280;40500;51.084;16.958;2023-01-25T01:30:46;102350.25;;;2.32;100.00
54600;BME280;40500;51.084;16.958;2023-01-25T01:33:22;102345.97;;;2.33;100.00
54600;BME280;40500;51.084;16.958;2023-01-25T01:36:19;102342.73;;;2.34;100.00
54600;BME280;40500;51.084;16.958;2023-01-25T01:39:21;102338.64;;;2.36;100.00
54600;BME280;40500;51.084;16.958;2023-01-25T01:41:53;102341.42;;;2.36;100.00
54600;BME280;40500;51.084;16.958;2023-01-25T01:44:49;102340.80;;;2.37;100.00
54600;BME280;40500;51.084;16.958;2023-01-25T01:47:26;102337.84;;;2.37;100.00
54600;BME280;40500;51.084;16.958;2023-01-25T01:50:05;102335.89;;;2.36;100.00
54600;BME280;40500;51.084;16.958;2023-01-25T01:52:48;102332.04;;;2.35;100.00
54600;BME280;40500;51.084;16.958;2023-01-25T01:55:26;102329.27;;;2.35;100.00
54600;BME280;40500;51.084;16.958;2023-01-25T01:58:25;102330.39;;;2.33;100.00
54600;BME280;40500;51.084;16.958;2023-01-25T02:00:57;102324.02;;;2.33;100.00
54600;BME280;40500;51.084;16.958;2023-01-25T02:03:32;102325.27;;;2.34;100.00
54600;BME280;40500;51.084;16.958;2023-01-25T02:06:33;102327.05;;;2.35;100.00
54600;BME280;40500;51.084;16.958;2023-01-25T02:09:34;102324.59;;;2.35;100.00
54600;BME280;40500;51.084;16.958;2023-01-25T02:12:28;102315.79;;;2.35;100.00
54600;BME280;40500;51.084;16.958;2023-01-25T02:15:38;102314.40;;;2.35;100.00
54600;BME280;40500;51.084;16.958;2023-01-25T02:18:15;102308.49;;;2.35;100.00
54600;BME280;40500;51.084;16.958;2023-01-25T02:21:04;102319.14;;;2.33;100.00
54600;BME280;40500;51.084;16.958;2023-01-25T02:24:03;102316.16;;;2.32;100.00
54600;BME280;40500;51.084;16.958;2023-01-25T02:27:02;102317.34;;;2.31;100.00
54600;BME280;40500;51.084;16.958;2023-01-25T02:30:13;102321.20;;;2.29;100.00
54600;BME280;40500;51.084;16.958;2023-01-25T02:32:56;102321.31;;;2.28;100.00
54600;BME280;40500;51.084;16.958;2023-01-25T02:35:59;102317.48;;;2.27;100.00
54600;BME280;40500;51.084;16.958;2023-01-25T02:39:16;102312.73;;;2.26;100.00
54600;BME280;40500;51.084;16.958;2023-01-25T02:41:55;102311.55;;;2.26;100.00
54600;BME280;40500;51.084;16.958;2023-01-25T02:44:34;102310.71;;;2.27;100.00
54600;BME280;40500;51.084;16.958;2023-01-25T02:47:30;102311.29;;;2.28;100.00
54600;BME280;40500;51.084;16.958;2023-01-25T02:50:11;102308.25;;;2.30;100.00
54600;BME280;40500;51.084;16.958;2023-01-25T02:52:44;102312.38;;;2.29;100.00
54600;BME280;40500;51.084;16.958;2023-01-25T02:55:23;102313.48;;;2.27;100.00
54600;BME280;40500;51.084;16.958;2023-01-25T02:58:18;102311.59;;;2.27;100.00
54600;BME280;40500;51.084;16.958;2023-01-25T03:00:55;102308.21;;;2.29;100.00
54600;BME280;40500;51.084;16.958;2023-01-25T03:03:59;102312.09;;;2.30;100.00
54600;BME280;40500;51.084;16.958;2023-01-25T03:06:42;102304.86;;;2.31;100.00
54600;BME280;40500;51.084;16.958;2023-01-25T03:09:35;102306.28;;;2.31;100.00
54600;BME280;40500;51.084;16.958;2023-01-25T03:12:22;102305.08;;;2.32;100.00
54600;BME280;40500;51.084;16.958;2023-01-25T03:15:09;102302.71;;;2.33;100.00
54600;BME280;40500;51.084;16.958;2023-01-25T03:17:40;102296.92;;;2.31;100.00
54600;BME280;40500;51.084;16.958;2023-01-25T03:20:34;102295.57;;;2.28;100.00
54600;BME280;40500;51.084;16.958;2023-01-25T03:23:16;102294.94;;;2.29;100.00
54600;BME280;40500;51.084;16.958;2023-01-25T03:26:09;102288.70;;;2.29;100.00
54600;BME280;40500;51.084;16.958;2023-01-25T03:29:19;102287.73;;;2.27;100.00
54600;BME280;40500;51.084;16.958;2023-01-25T03:32:21;102292.30;;;2.25;100.00
54600;BME280;40500;51.084;16.958;2023-01-25T03:35:25;102289.74;;;2.26;100.00
54600;BME280;40500;51.084;16.958;2023-01-25T03:38:02;102291.34;;;2.27;100.00
54600;BME280;40500;51.084;16.958;2023-01-25T03:40:57;102286.89;;;2.27;100.00
54600;BME280;40500;51.084;16.958;2023-01-25T03:43:31;102282.83;;;2.26;100.00
54600;BME280;40500;51.084;16.958;2023-01-25T03:46:18;102282.91;;;2.24;100.00
54600;BME280;40500;51.084;16.958;2023-01-25T03:48:54;102282.13;;;2.26;100.00
54600;BME280;40500;51.084;16.958;2023-01-25T03:51:47;102279.06;;;2.27;100.00
54600;BME280;40500;51.084;16.958;2023-01-25T03:54:36;102281.10;;;2.26;100.00
54600;BME280;40500;51.084;16.958;2023-01-25T03:57:10;102279.49;;;2.25;100.00
54600;BME280;40500;51.084;16.958;2023-01-25T04:00:10;102272.67;;;2.23;100.00
54600;BME280;40500;51.084;16.958;2023-01-25T04:03:04;102272.03;;;2.21;100.00
54600;BME280;40500;51.084;16.958;2023-01-25T04:05:50;102267.08;;;2.18;100.00
54600;BME280;40500;51.084;16.958;2023-01-25T04:08:47;102263.89;;;2.17;100.00
54600;BME280;40500;51.084;16.958;2023-01-25T04:11:40;102265.27;;;2.16;100.00
54600;BME280;40500;51.084;16.958;2023-01-25T04:14:34;102262.09;;;2.15;100.00
54600;BME280;40500;51.084;16.958;2023-01-25T04:17:20;102260.70;;;2.15;100.00
54600;BME280;40500;51.084;16.958;2023-01-25T04:20:23;102259.50;;;2.15;100.00
54600;BME280;40500;51.084;16.958;2023-01-25T04:23:20;102260.20;;;2.15;100.00
54600;BME280;40500;51.084;16.958;2023-01-25T04:25:57;102254.99;;;2.15;100.00
54600;BME280;40500;51.084;16.958;2023-01-25T04:28:31;102251.10;;;2.13;100.00
54600;BME280;40500;51.084;16.958;2023-01-25T04:31:13;102246.36;;;2.08;100.00
54600;BME280;40500;51.084;16.958;2023-01-25T04:33:45;102249.08;;;2.07;100.00
54600;BME280;40500;51.084;16.958;2023-01-25T04:36:22;102244.61;;;2.07;100.00
54600;BME280;40500;51.084;16.958;2023-01-25T04:39:21;102239.45;;;2.08;100.00
54600;BME280;40500;51.084;16.958;2023-01-25T04:42:14;102235.63;;;2.08;100.00
54600;BME280;40500;51.084;16.958;2023-01-25T04:45:08;102239.96;;;2.08;100.00
54600;BME280;40500;51.084;16.958;2023-01-25T04:48:03;102237.80;;;2.09;100.00
54600;BME280;40500;51.084;16.958;2023-01-25T04:50:56;102232.86;;;2.11;100.00
54600;BME280;40500;51.084;16.958;2023-01-25T04:53:49;102233.27;;;2.12;100.00
54600;BME280;40500;51.084;16.958;2023-01-25T04:56:49;102234.66;;;2.12;100.00
54600;BME280;40500;51.084;16.958;2023-01-25T04:59:22;102237.39;;;2.12;100.00
54600;BME280;40500;51.084;16.958;2023-01-25T05:02:11;102236.60;;;2.10;100.00
54600;BME280;40500;51.084;16.958;2023-01-25T05:04:43;102231.65;;;2.04;100.00
54600;BME280;40500;51.084;16.958;2023-01-25T05:07:37;102226.05;;;1.99;100.00
54600;BME280;40500;51.084;16.958;2023-01-25T05:10:27;102228.99;;;1.95;100.00
54600;BME280;40500;51.084;16.958;2023-01-25T05:13:18;102218.73;;;1.94;100.00
54600;BME280;40500;51.084;16.958;2023-01-25T05:16:12;102219.67;;;1.92;100.00
54600;BME280;40500;51.084;16.958;2023-01-25T05:18:56;102220.13;;;1.94;100.00
54600;BME280;40500;51.084;16.958;2023-01-25T05:21:55;102218.50;;;1.96;100.00
54600;BME280;40500;51.084;16.958;2023-01-25T05:24:35;102217.31;;;1.96;100.00
54600;BME280;40500;51.084;16.958;2023-01-25T05:27:15;102214.48;;;1.99;100.00
54600;BME280;40500;51.084;16.958;2023-01-25T05:33:26;102205.58;;;1.97;100.00
54600;BME280;40500;51.084;16.958;2023-01-25T05:36:21;102212.10;;;2.00;100.00
54600;BME280;40500;51.084;16.958;2023-01-25T05:38:55;102206.75;;;2.00;100.00
54600;BME280;40500;51.084;16.958;2023-01-25T05:41:27;102200.09;;;2.02;100.00
54600;BME280;40500;51.084;16.958;2023-01-25T05:44:07;102196.68;;;1.99;100.00
54600;BME280;40500;51.084;16.958;2023-01-25T05:46:43;102197.30;;;1.97;100.00
54600;BME280;40500;51.084;16.958;2023-01-25T05:49:36;102196.12;;;1.94;100.00
54600;BME280;40500;51.084;16.958;2023-01-25T05:52:27;102197.80;;;1.93;100.00
54600;BME280;40500;51.084;16.958;2023-01-25T05:58:28;102194.77;;;1.95;100.00
54600;BME280;40500;51.084;16.958;2023-01-25T06:01:23;102187.98;;;1.90;100.00
54600;BME280;40500;51.084;16.958;2023-01-25T06:04:01;102193.82;;;1.86;100.00
54600;BME280;40500;51.084;16.958;2023-01-25T06:06:44;102192.70;;;1.84;100.00
54600;BME280;40500;51.084;16.958;2023-01-25T06:09:45;102188.34;;;1.87;100.00
54600;BME280;40500;51.084;16.958;2023-01-25T06:12:44;102184.25;;;1.88;100.00
54600;BME280;40500;51.084;16.958;2023-01-25T06:15:33;102182.91;;;1.89;100.00
54600;BME280;40500;51.084;16.958;2023-01-25T06:18:29;102179.46;;;1.89;100.00
54600;BME280;40500;51.084;16.958;2023-01-25T06:21:34;102173.27;;;1.89;100.00
54600;BME280;40500;51.084;16.958;2023-01-25T06:24:29;102173.55;;;1.88;100.00
54600;BME280;40500;51.084;16.958;2023-01-25T06:27:35;102180.13;;;1.88;100.00
54600;BME280;40500;51.084;16.958;2023-01-25T06:30:16;102179.90;;;1.87;100.00
54600;BME280;40500;51.084;16.958;2023-01-25T06:33:21;102184.96;;;1.81;100.00
54600;BME280;40500;51.084;16.958;2023-01-25T06:36:18;102187.98;;;1.76;100.00
54600;BME280;40500;51.084;16.958;2023-01-25T06:39:13;102187.44;;;1.76;100.00
54600;BME280;40500;51.084;16.958;2023-01-25T06:42:15;102188.04;;;1.77;100.00
54600;BME280;40500;51.084;16.958;2023-01-25T06:44:48;102182.92;;;1.79;100.00
54600;BME280;40500;51.084;16.958;2023-01-25T06:47:21;102180.07;;;1.80;100.00
54600;BME280;40500;51.084;16.958;2023-01-25T06:50:21;102175.71;;;1.83;100.00
54600;BME280;40500;51.084;16.958;2023-01-25T06:52:55;102179.20;;;1.84;100.00
54600;BME280;40500;51.084;16.958;2023-01-25T06:55:32;102174.02;;;1.84;100.00
54600;BME280;40500;51.084;16.958;2023-01-25T06:58:03;102175.90;;;1.84;100.00
54600;BME280;40500;51.084;16.958;2023-01-25T07:00:36;102173.51;;;1.84;100.00
54600;BME280;40500;51.084;16.958;2023-01-25T07:03:07;102168.50;;;1.84;100.00
54600;BME280;40500;51.084;16.958;2023-01-25T07:05:37;102166.48;;;1.81;100.00
54600;BME280;40500;51.084;16.958;2023-01-25T07:08:08;102164.55;;;1.81;100.00
54600;BME280;40500;51.084;16.958;2023-01-25T07:10:44;102155.77;;;1.82;100.00
54600;BME280;40500;51.084;16.958;2023-01-25T07:13:22;102156.84;;;1.78;100.00
54600;BME280;40500;51.084;16.958;2023-01-25T07:15:58;102156.10;;;1.77;100.00
54600;BME280;40500;51.084;16.958;2023-01-25T07:18:29;102153.85;;;1.77;100.00
54600;BME280;40500;51.084;16.958;2023-01-25T07:21:05;102153.20;;;1.78;100.00
54600;BME280;40500;51.084;16.958;2023-01-25T07:23:37;102154.13;;;1.80;100.00
54600;BME280;40500;51.084;16.958;2023-01-25T07:26:14;102152.65;;;1.81;100.00
54600;BME280;40500;51.084;16.958;2023-01-25T07:28:49;102148.00;;;1.81;100.00
54600;BME280;40500;51.084;16.958;2023-01-25T07:31:21;102154.31;;;1.84;100.00
54600;BME280;40500;51.084;16.958;2023-01-25T07:33:54;102151.17;;;1.86;100.00
54600;BME280;40500;51.084;16.958;2023-01-25T07:36:26;102147.02;;;1.86;100.00
54600;BME280;40500;51.084;16.958;2023-01-25T07:38:59;102144.89;;;1.85;100.00
54600;BME280;40500;51.084;16.958;2023-01-25T07:41:30;102143.02;;;1.85;100.00
54600;BME280;40500;51.084;16.958;2023-01-25T07:44:03;102140.83;;;1.87;100.00
54600;BME280;40500;51.084;16.958;2023-01-25T07:46:39;102142.92;;;1.87;100.00
54600;BME280;40500;51.084;16.958;2023-01-25T07:49:10;102141.48;;;1.86;100.00
54600;BME280;40500;51.084;16.958;2023-01-25T07:51:41;102140.27;;;1.86;100.00
54600;BME280;40500;51.084;16.958;2023-01-25T07:54:12;102134.10;;;1.87;100.00
54600;BME280;40500;51.084;16.958;2023-01-25T07:56:43;102132.33;;;1.86;100.00
54600;BME280;40500;51.084;16.958;2023-01-25T07:59:14;102134.55;;;1.85;100.00
54600;BME280;40500;51.084;16.958;2023-01-25T08:01:45;102130.83;;;1.87;100.00
54600;BME280;40500;51.084;16.958;2023-01-25T08:04:16;102128.30;;;1.88;100.00
54600;BME280;40500;51.084;16.958;2023-01-25T08:06:47;102123.51;;;1.90;100.00
54600;BME280;40500;51.084;16.958;2023-01-25T08:09:18;102121.27;;;1.89;100.00
54600;BME280;40500;51.084;16.958;2023-01-25T08:11:48;102122.02;;;1.87;100.00
54600;BME280;40500;51.084;16.958;2023-01-25T08:14:19;102118.89;;;1.86;100.00
54600;BME280;40500;51.084;16.958;2023-01-25T08:16:50;102113.98;;;1.89;100.00
54600;BME280;40500;51.084;16.958;2023-01-25T08:19:20;102114.20;;;1.90;100.00
54600;BME280;40500;51.084;16.958;2023-01-25T08:21:53;102109.10;;;1.91;100.00
54600;BME280;40500;51.084;16.958;2023-01-25T08:24:31;102109.05;;;1.94;100.00
54600;BME280;40500;51.084;16.958;2023-01-25T08:27:01;102110.05;;;1.97;100.00
54600;BME280;40500;51.084;16.958;2023-01-25T08:29:32;102111.52;;;2.00;100.00
54600;BME280;40500;51.084;16.958;2023-01-25T08:32:02;102110.17;;;2.00;100.00
54600;BME280;40500;51.084;16.958;2023-01-25T08:34:34;102109.33;;;2.01;100.00
54600;BME280;40500;51.084;16.958;2023-01-25T08:37:07;102108.52;;;2.02;100.00
54600;BME280;40500;51.084;16.958;2023-01-25T08:39:39;102106.55;;;2.04;100.00
54600;BME280;40500;51.084;16.958;2023-01-25T08:42:09;102109.58;;;2.06;100.00
54600;BME280;40500;51.084;16.958;2023-01-25T08:44:40;102104.10;;;2.07;100.00
54600;BME280;40500;51.084;16.958;2023-01-25T08:47:10;102104.48;;;2.08;100.00
54600;BME280;40500;51.084;16.958;2023-01-25T08:49:44;102100.89;;;2.08;100.00
54600;BME280;40500;51.084;16.958;2023-01-25T08:52:17;102099.50;;;2.08;100.00
54600;BME280;40500;51.084;16.958;2023-01-25T08:54:51;102100.39;;;2.09;100.00
54600;BME280;40500;51.084;16.958;2023-01-25T08:57:23;102089.10;;;2.11;100.00
54600;BME280;40500;51.084;16.958;2023-01-25T08:59:54;102082.89;;;2.15;100.00
54600;BME280;40500;51.084;16.958;2023-01-25T09:02:24;102069.83;;;2.21;100.00
54600;BME280;40500;51.084;16.958;2023-01-25T09:04:55;102060.11;;;2.28;100.00
54600;BME280;40500;51.084;16.958;2023-01-25T09:07:29;102056.11;;;2.31;100.00
54600;BME280;40500;51.084;16.958;2023-01-25T09:10:00;102055.06;;;2.31;100.00
54600;BME280;40500;51.084;16.958;2023-01-25T09:12:33;102052.73;;;2.33;100.00
54600;BME280;40500;51.084;16.958;2023-01-25T09:15:05;102050.64;;;2.32;100.00
54600;BME280;40500;51.084;16.958;2023-01-25T09:17:36;102050.05;;;2.35;100.00
54600;BME280;40500;51.084;16.958;2023-01-25T09:20:09;102054.64;;;2.36;100.00
54600;BME280;40500;51.084;16.958;2023-01-25T09:22:42;102059.95;;;2.40;100.00
54600;BME280;40500;51.084;16.958;2023-01-25T09:25:13;102060.59;;;2.43;100.00
54600;BME280;40500;51.084;16.958;2023-01-25T09:27:44;102067.34;;;2.47;100.00
54600;BME280;40500;51.084;16.958;2023-01-25T09:30:15;102065.73;;;2.46;100.00
54600;BME280;40500;51.084;16.958;2023-01-25T09:32:52;102060.19;;;2.45;100.00
54600;BME280;40500;51.084;16.958;2023-01-25T09:35:23;102057.70;;;2.48;100.00
54600;BME280;40500;51.084;16.958;2023-01-25T09:37:57;102053.65;;;2.50;100.00
54600;BME280;40500;51.084;16.958;2023-01-25T09:40:36;102048.63;;;2.54;100.00
54600;BME280;40500;51.084;16.958;2023-01-25T09:43:14;102044.41;;;2.56;100.00
54600;BME280;40500;51.084;16.958;2023-01-25T09:45:50;102041.55;;;2.58;100.00
54600;BME280;40500;51.084;16.958;2023-01-25T09:48:27;102034.97;;;2.58;100.00
54600;BME280;40500;51.084;16.958;2023-01-25T09:51:14;102035.52;;;2.58;100.00
54600;BME280;40500;51.084;16.958;2023-01-25T09:53:50;102029.21;;;2.56;100.00
54600;BME280;40500;51.084;16.958;2023-01-25T09:56:27;102023.05;;;2.58;100.00
54600;BME280;40500;51.084;16.958;2023-01-25T09:59:02;102014.19;;;2.61;100.00
54600;BME280;40500;51.084;16.958;2023-01-25T10:01:43;102007.85;;;2.63;100.00
54600;BME280;40500;51.084;16.958;2023-01-25T10:04:17;102005.65;;;2.64;100.00
54600;BME280;40500;51.084;16.958;2023-01-25T10:06:53;102003.88;;;2.63;100.00
54600;BME280;40500;51.084;16.958;2023-01-25T10:09:38;102006.08;;;2.62;100.00
54600;BME280;40500;51.084;16.958;2023-01-25T10:12:18;102000.65;;;2.64;100.00
54600;BME280;40500;51.084;16.958;2023-01-25T10:14:50;102002.28;;;2.66;100.00
54600;BME280;40500;51.084;16.958;2023-01-25T10:17:28;102000.88;;;2.65;100.00
54600;BME280;40500;51.084;16.958;2023-01-25T10:20:14;101996.73;;;2.65;100.00
54600;BME280;40500;51.084;16.958;2023-01-25T10:22:52;101995.79;;;2.64;100.00
54600;BME280;40500;51.084;16.958;2023-01-25T10:25:32;101996.83;;;2.64;100.00
54600;BME280;40500;51.084;16.958;2023-01-25T10:28:16;101990.40;;;2.63;100.00
54600;BME280;40500;51.084;16.958;2023-01-25T10:30:57;101987.00;;;2.64;100.00
54600;BME280;40500;51.084;16.958;2023-01-25T10:33:30;101980.31;;;2.66;100.00
54600;BME280;40500;51.084;16.958;2023-01-25T10:36:06;101979.69;;;2.63;100.00
54600;BME280;40500;51.084;16.958;2023-01-25T10:38:41;101977.60;;;2.63;100.00
54600;BME280;40500;51.084;16.958;2023-01-25T10:41:19;101980.69;;;2.67;100.00
54600;BME280;40500;51.084;16.958;2023-01-25T10:43:53;101979.73;;;2.69;100.00
54600;BME280;40500;51.084;16.958;2023-01-25T10:46:54;101979.46;;;2.71;100.00
54600;BME280;40500;51.084;16.958;2023-01-25T10:49:32;101977.91;;;2.75;100.00
54600;BME280;40500;51.084;16.958;2023-01-25T10:52:16;101976.09;;;2.81;100.00
54600;BME280;40500;51.084;16.958;2023-01-25T10:54:48;101974.39;;;2.86;100.00
54600;BME280;40500;51.084;16.958;2023-01-25T10:57:20;101968.54;;;2.86;100.00
54600;BME280;40500;51.084;16.958;2023-01-25T10:59:54;101966.13;;;2.87;100.00
54600;BME280;40500;51.084;16.958;2023-01-25T11:02:44;101962.36;;;2.88;100.00
54600;BME280;40500;51.084;16.958;2023-01-25T11:05:33;101957.42;;;2.90;100.00
54600;BME280;40500;51.084;16.958;2023-01-25T11:08:23;101952.67;;;2.92;100.00
54600;BME280;40500;51.084;16.958;2023-01-25T11:10:53;101953.98;;;2.90;100.00
54600;BME280;40500;51.084;16.958;2023-01-25T11:13:26;101953.71;;;2.88;100.00
54600;BME280;40500;51.084;16.958;2023-01-25T11:16:19;101948.42;;;2.86;100.00
54600;BME280;40500;51.084;16.958;2023-01-25T11:18:56;101939.58;;;2.85;100.00
54600;BME280;40500;51.084;16.958;2023-01-25T11:21:31;101935.34;;;2.83;100.00
54600;BME280;40500;51.084;16.958;2023-01-25T11:24:16;101932.16;;;2.81;100.00
54600;BME280;40500;51.084;16.958;2023-01-25T11:26:47;101920.22;;;2.86;100.00
54600;BME280;40500;51.084;16.958;2023-01-25T11:29:19;101915.95;;;2.87;100.00
54600;BME280;40500;51.084;16.958;2023-01-25T11:31:53;101908.38;;;2.88;100.00
54600;BME280;40500;51.084;16.958;2023-01-25T11:34:28;101900.27;;;2.88;100.00
54600;BME280;40500;51.084;16.958;2023-01-25T11:37:21;101892.27;;;2.87;100.00
54600;BME280;40500;51.084;16.958;2023-01-25T11:40:01;101889.17;;;2.83;100.00
54600;BME280;40500;51.084;16.958;2023-01-25T11:42:51;101881.68;;;2.82;100.00
54600;BME280;40500;51.084;16.958;2023-01-25T11:48:51;101871.81;;;2.77;100.00
54600;BME280;40500;51.084;16.958;2023-01-25T11:51:28;101860.73;;;2.77;100.00
54600;BME280;40500;51.084;16.958;2023-01-25T11:54:20;101859.70;;;2.77;100.00
54600;BME280;40500;51.084;16.958;2023-01-25T11:56:59;101847.70;;;2.75;100.00
54600;BME280;40500;51.084;16.958;2023-01-25T11:59:47;101848.45;;;2.76;100.00
54600;BME280;40500;51.084;16.958;2023-01-25T12:02:42;101848.73;;;2.80;100.00
54600;BME280;40500;51.084;16.958;2023-01-25T12:05:27;101843.48;;;2.83;100.00
54600;BME280;40500;51.084;16.958;2023-01-25T12:08:12;101832.41;;;2.83;100.00
54600;BME280;40500;51.084;16.958;2023-01-25T12:10:53;101825.50;;;2.83;100.00
54600;BME280;40500;51.084;16.958;2023-01-25T12:13:32;101818.40;;;2.83;100.00
54600;BME280;40500;51.084;16.958;2023-01-25T12:16:23;101817.77;;;2.85;100.00
54600;BME280;40500;51.084;16.958;2023-01-25T12:19:23;101812.25;;;2.85;100.00
54600;BME280;40500;51.084;16.958;2023-01-25T12:22:11;101810.14;;;2.84;100.00
54600;BME280;40500;51.084;16.958;2023-01-25T12:24:46;101804.77;;;2.79;100.00
54600;BME280;40500;51.084;16.958;2023-01-25T12:27:30;101798.05;;;2.75;100.00
54600;BME280;40500;51.084;16.958;2023-01-25T12:30:15;101798.35;;;2.74;100.00
54600;BME280;40500;51.084;16.958;2023-01-25T12:32:54;101793.47;;;2.73;100.00
54600;BME280;40500;51.084;16.958;2023-01-25T12:35:44;101784.88;;;2.70;100.00
54600;BME280;40500;51.084;16.958;2023-01-25T12:38:18;101780.59;;;2.71;100.00
54600;BME280;40500;51.084;16.958;2023-01-25T12:40:54;101780.52;;;2.74;100.00
54600;BME280;40500;51.084;16.958;2023-01-25T12:43:30;101776.39;;;2.74;100.00
54600;BME280;40500;51.084;16.958;2023-01-25T12:46:12;101772.60;;;2.75;100.00
54600;BME280;40500;51.084;16.958;2023-01-25T12:48:49;101771.50;;;2.73;100.00
54600;BME280;40500;51.084;16.958;2023-01-25T12:51:32;101766.65;;;2.69;100.00
54600;BME280;40500;51.084;16.958;2023-01-25T12:54:09;101764.17;;;2.67;100.00
54600;BME280;40500;51.084;16.958;2023-01-25T12:56:48;101764.70;;;2.67;100.00
54600;BME280;40500;51.084;16.958;2023-01-25T12:59:31;101763.85;;;2.68;100.00
54600;BME280;40500;51.084;16.958;2023-01-25T13:02:24;101757.08;;;2.67;100.00
54600;BME280;40500;51.084;16.958;2023-01-25T13:05:15;101757.27;;;2.67;100.00
54600;BME280;40500;51.084;16.958;2023-01-25T13:07:57;101752.73;;;2.66;100.00
54600;BME280;40500;51.084;16.958;2023-01-25T13:10:35;101750.34;;;2.67;100.00
54600;BME280;40500;51.084;16.958;2023-01-25T13:13:21;101751.21;;;2.67;100.00
54600;BME280;40500;51.084;16.958;2023-01-25T13:15:56;101743.75;;;2.67;100.00
54600;BME280;40500;51.084;16.958;2023-01-25T13:18:41;101737.47;;;2.65;100.00
54600;BME280;40500;51.084;16.958;2023-01-25T13:21:39;101736.91;;;2.64;100.00
54600;BME280;40500;51.084;16.958;2023-01-25T13:24:21;101736.13;;;2.62;100.00
54600;BME280;40500;51.084;16.958;2023-01-25T13:27:01;101731.93;;;2.61;100.00
54600;BME280;40500;51.084;16.958;2023-01-25T13:29:44;101731.75;;;2.61;100.00
54600;BME280;40500;51.084;16.958;2023-01-25T13:35:40;101724.13;;;2.60;100.00
54600;BME280;40500;51.084;16.958;2023-01-25T13:38:32;101722.73;;;2.60;100.00
54600;BME280;40500;51.084;16.958;2023-01-25T13:41:15;101714.11;;;2.60;100.00
54600;BME280;40500;51.084;16.958;2023-01-25T13:44:07;101717.05;;;2.60;100.00
54600;BME280;40500;51.084;16.958;2023-01-25T13:46:42;101713.08;;;2.61;100.00
54600;BME280;40500;51.084;16.958;2023-01-25T13:49:21;101715.72;;;2.62;100.00
54600;BME280;40500;51.084;16.958;2023-01-25T13:51:52;101712.68;;;2.64;100.00
54600;BME280;40500;51.084;16.958;2023-01-25T13:54:23;101714.65;;;2.66;100.00
54600;BME280;40500;51.084;16.958;2023-01-25T13:57:04;101716.55;;;2.65;100.00
54600;BME280;40500;51.084;16.958;2023-01-25T13:59:37;101716.38;;;2.65;100.00
54600;BME280;40500;51.084;16.958;2023-01-25T14:02:15;101711.80;;;2.63;100.00
54600;BME280;40500;51.084;16.958;2023-01-25T14:04:48;101708.10;;;2.62;100.00
54600;BME280;40500;51.084;16.958;2023-01-25T14:07:23;101709.67;;;2.62;100.00
54600;BME280;40500;51.084;16.958;2023-01-25T14:09:56;101708.69;;;2.63;100.00
54600;BME280;40500;51.084;16.958;2023-01-25T14:12:35;101705.38;;;2.63;100.00